createdAt,value
2023-01-30T00:01:06.608Z,15.05
2023-01-30T00:03:34.166Z,10.93
2023-01-30T00:06:00.574Z,10.45
2023-01-30T00:08:26.983Z,9.18
2023-01-30T00:10:53.377Z,11.02
2023-01-30T00:13:19.822Z,11.35
2023-01-30T00:15:48.013Z,8.80
2023-01-30T00:18:14.421Z,16.80
2023-01-30T00:20:40.800Z,9.55
2023-01-30T00:23:07.207Z,12.43
2023-01-30T00:25:33.848Z,9.02
2023-01-30T00:28:01.950Z,9.02
2023-01-30T00:30:29.975Z,10.88
2023-01-30T00:32:58.656Z,12.98
2023-01-30T00:35:28.464Z,9.43
2023-01-30T00:37:57.724Z,13.70
2023-01-30T00:40:25.670Z,9.07
2023-01-30T00:46:03.805Z,9.77
2023-01-30T00:48:30.753Z,11.98
2023-01-30T00:50:57.207Z,8.48
2023-01-30T00:53:24.024Z,9.40
2023-01-30T00:55:51.790Z,14.07
2023-01-30T00:58:18.416Z,7.70
2023-01-30T01:00:46.286Z,10.45
2023-01-30T01:03:12.972Z,10.93
2023-01-30T01:05:40.523Z,10.32
2023-01-30T01:08:07.062Z,10.15
2023-01-30T01:10:33.952Z,9.43
2023-01-30T01:13:00.703Z,10.57
2023-01-30T01:15:27.693Z,13.65
2023-01-30T01:17:54.545Z,11.65
2023-01-30T01:20:22.250Z,12.45
2023-01-30T01:22:53.723Z,10.55
2023-01-30T01:25:20.817Z,11.10
2023-01-30T01:27:47.501Z,11.38
2023-01-30T01:30:17.074Z,11.38
2023-01-30T01:32:44.055Z,10.85
2023-01-30T01:35:10.837Z,11.55
2023-01-30T01:37:37.611Z,9.23
2023-01-30T01:40:24.569Z,11.02
2023-01-30T01:42:51.046Z,12.32
2023-01-30T01:45:23.392Z,10.80
2023-01-30T01:48:02.587Z,8.82
2023-01-30T01:50:40.238Z,9.60
2023-01-30T01:53:10.777Z,8.85
2023-01-30T01:55:39.058Z,11.65
2023-01-30T01:58:37.124Z,10.13
2023-01-30T02:01:03.859Z,11.85
2023-01-30T02:03:34.812Z,8.63
2023-01-30T02:06:03.335Z,9.77
2023-01-30T02:08:37.022Z,8.25
2023-01-30T02:11:12.419Z,10.48
2023-01-30T02:13:38.887Z,8.83
2023-01-30T02:16:07.989Z,8.48
2023-01-30T02:18:36.806Z,9.85
2023-01-30T02:21:17.223Z,8.20
2023-01-30T02:24:00.126Z,7.45
2023-01-30T02:26:54.026Z,6.82
2023-01-30T02:29:45.148Z,7.30
2023-01-30T02:36:43.954Z,7.85
2023-01-30T02:39:13.141Z,6.70
2023-01-30T02:41:55.511Z,7.78
2023-01-30T02:44:28.074Z,6.93
2023-01-30T02:47:02.764Z,8.88
2023-01-30T02:49:33.828Z,7.78
2023-01-30T02:52:02.318Z,7.10
2023-01-30T02:54:28.856Z,6.47
2023-01-30T02:56:58.492Z,8.07
2023-01-30T02:59:43.979Z,6.75
2023-01-30T03:02:39.973Z,7.05
2023-01-30T03:05:21.708Z,7.28
2023-01-30T03:07:51.093Z,6.20
2023-01-30T03:10:23.830Z,11.32
2023-01-30T03:13:14.795Z,8.15
2023-01-30T03:15:59.843Z,8.73
2023-01-30T03:18:26.360Z,10.25
2023-01-30T03:20:53.079Z,11.63
2023-01-30T03:23:19.564Z,8.40
2023-01-30T03:25:48.658Z,7.97
2023-01-30T03:28:20.480Z,8.82
2023-01-30T03:30:47.320Z,8.95
2023-01-30T03:33:14.132Z,9.73
2023-01-30T03:35:46.990Z,10.40
2023-01-30T03:38:14.641Z,7.55
2023-01-30T03:40:41.137Z,8.95
2023-01-30T03:43:08.583Z,7.45
2023-01-30T03:45:36.696Z,8.25
2023-01-30T03:48:03.316Z,7.15
2023-01-30T03:50:30.907Z,7.03
2023-01-30T03:52:57.477Z,6.93
2023-01-30T03:55:23.939Z,7.15
2023-01-30T03:57:55.216Z,8.52
2023-01-30T04:00:21.913Z,9.15
2023-01-30T04:02:50.252Z,7.40
2023-01-30T04:05:18.788Z,7.90
2023-01-30T04:07:51.806Z,6.97
2023-01-30T04:10:19.971Z,6.80
2023-01-30T04:12:47.332Z,7.88
2023-01-30T04:15:14.096Z,6.95
2023-01-30T04:17:50.528Z,8.75
2023-01-30T04:20:22.742Z,7.15
2023-01-30T04:22:54.842Z,7.40
2023-01-30T04:25:22.228Z,6.82
2023-01-30T04:27:48.757Z,6.75
2023-01-30T04:30:19.121Z,7.78
2023-01-30T04:32:47.388Z,6.78
2023-01-30T04:35:14.719Z,6.93
2023-01-30T04:37:41.297Z,7.65
2023-01-30T04:40:10.175Z,7.90
2023-01-30T04:42:36.921Z,6.60
2023-01-30T04:45:21.976Z,8.32
2023-01-30T04:47:50.398Z,9.00
2023-01-30T04:50:17.017Z,7.85
2023-01-30T04:52:43.637Z,7.18
2023-01-30T04:55:11.397Z,6.75
2023-01-30T04:57:37.884Z,6.22
2023-01-30T05:00:04.893Z,8.45
2023-01-30T05:02:33.753Z,7.97
2023-01-30T05:05:00.216Z,8.60
2023-01-30T05:07:26.624Z,7.45
2023-01-30T05:09:53.064Z,8.10
2023-01-30T05:12:19.493Z,6.75
2023-01-30T05:14:46.882Z,9.05
2023-01-30T05:17:13.412Z,9.05
2023-01-30T05:19:40.129Z,8.02
2023-01-30T05:22:06.775Z,9.05
2023-01-30T05:24:33.214Z,9.00
2023-01-30T05:26:59.677Z,6.95
2023-01-30T05:29:26.109Z,7.95
2023-01-30T05:31:52.584Z,6.78
2023-01-30T05:34:19.233Z,7.10
2023-01-30T05:36:45.764Z,6.70
2023-01-30T05:39:12.208Z,7.22
2023-01-30T05:41:38.696Z,6.22
2023-01-30T05:44:05.582Z,11.43
2023-01-30T05:46:32.171Z,9.50
2023-01-30T05:48:58.690Z,13.60
2023-01-30T05:51:26.793Z,11.73
2023-01-30T05:53:53.686Z,12.02
2023-01-30T05:56:20.383Z,9.70
2023-01-30T05:58:54.397Z,7.82
2023-01-30T06:01:22.511Z,8.15
2023-01-30T06:03:49.557Z,11.63
2023-01-30T06:06:16.205Z,7.55
2023-01-30T06:08:42.930Z,6.60
2023-01-30T06:11:14.729Z,6.50
2023-01-30T06:13:42.016Z,6.63
2023-01-30T06:16:11.863Z,5.85
2023-01-30T06:18:39.009Z,7.53
2023-01-30T06:21:05.831Z,5.53
2023-01-30T06:23:32.261Z,6.93
2023-01-30T06:25:59.213Z,7.55
2023-01-30T06:28:25.792Z,5.75
2023-01-30T06:30:52.580Z,5.82
2023-01-30T06:33:19.626Z,6.90
2023-01-30T06:35:49.404Z,9.65
2023-01-30T06:38:16.281Z,8.98
2023-01-30T06:40:45.527Z,7.28
2023-01-30T06:43:12.088Z,8.27
2023-01-30T06:45:38.512Z,6.05
2023-01-30T06:48:05.322Z,5.97
2023-01-30T06:50:32.524Z,5.55
2023-01-30T06:53:02.952Z,6.70
2023-01-30T06:55:29.687Z,5.43
2023-01-30T06:58:07.202Z,5.07
2023-01-30T07:00:34.494Z,6.95
2023-01-30T07:03:01.034Z,6.18
2023-01-30T07:05:28.990Z,5.57
2023-01-30T07:07:55.610Z,6.15
2023-01-30T07:10:22.149Z,6.85
2023-01-30T07:12:48.648Z,5.72
2023-01-30T07:15:15.214Z,6.38
2023-01-30T07:17:41.995Z,5.00
2023-01-30T07:20:10.068Z,5.43
2023-01-30T07:22:36.496Z,5.43
2023-01-30T07:25:03.120Z,4.97
2023-01-30T07:27:29.646Z,5.25
2023-01-30T07:29:56.077Z,5.10
2023-01-30T07:32:22.717Z,5.95
2023-01-30T07:34:49.189Z,4.88
2023-01-30T07:37:15.766Z,5.50
2023-01-30T07:39:42.436Z,6.05
2023-01-30T07:42:09.145Z,6.28
2023-01-30T07:44:35.587Z,5.70
2023-01-30T07:47:02.191Z,5.00
2023-01-30T07:49:28.714Z,7.82
2023-01-30T07:51:55.146Z,4.82
2023-01-30T07:54:21.572Z,7.97
2023-01-30T07:56:47.996Z,7.18
2023-01-30T07:59:14.814Z,5.43
2023-01-30T08:01:41.232Z,5.85
2023-01-30T08:04:07.710Z,5.40
2023-01-30T08:06:38.927Z,18.08
2023-01-30T08:09:06.931Z,15.60
2023-01-30T08:11:34.046Z,13.75
2023-01-30T08:14:00.583Z,6.22
2023-01-30T08:16:27.357Z,5.32
2023-01-30T08:18:54.130Z,5.07
2023-01-30T08:21:20.554Z,4.63
2023-01-30T08:23:47.025Z,3.70
2023-01-30T08:26:13.631Z,4.18
2023-01-30T08:28:40.751Z,4.53
2023-01-30T08:31:11.947Z,3.20
2023-01-30T08:33:38.787Z,4.13
2023-01-30T08:36:05.564Z,4.50
2023-01-30T08:38:32.071Z,3.80
2023-01-30T08:40:59.416Z,3.58
2023-01-30T08:43:25.886Z,5.22
2023-01-30T08:45:56.502Z,4.00
2023-01-30T08:48:23.554Z,4.40
2023-01-30T08:50:56.740Z,4.50
2023-01-30T08:53:23.299Z,2.88
2023-01-30T08:55:51.644Z,4.30
2023-01-30T08:58:18.951Z,2.53
2023-01-30T09:00:47.807Z,2.47
2023-01-30T09:03:15.772Z,2.35
2023-01-30T09:05:42.734Z,3.40
2023-01-30T09:08:09.468Z,2.53
2023-01-30T09:10:36.398Z,3.72
2023-01-30T09:13:05.275Z,3.22
2023-01-30T09:15:34.062Z,3.13
2023-01-30T09:18:00.495Z,3.22
2023-01-30T09:20:27.093Z,4.47
2023-01-30T09:22:53.638Z,3.58
2023-01-30T09:25:20.501Z,2.58
2023-01-30T09:27:50.859Z,2.38
2023-01-30T09:30:18.255Z,3.00
2023-01-30T09:32:45.166Z,2.10
2023-01-30T09:35:11.998Z,1.80
2023-01-30T09:37:38.425Z,2.15
2023-01-30T09:40:06.040Z,1.65
2023-01-30T09:43:02.025Z,2.55
2023-01-30T09:45:43.359Z,2.03
2023-01-30T09:48:18.009Z,1.60
2023-01-30T09:51:09.903Z,2.05
2023-01-30T09:53:50.277Z,1.95
2023-01-30T09:56:16.825Z,2.25
2023-01-30T09:58:51.700Z,3.50
2023-01-30T10:01:31.705Z,2.17
2023-01-30T10:04:41.968Z,3.67
2023-01-30T10:07:31.108Z,1.88
2023-01-30T10:10:24.848Z,2.10
2023-01-30T10:13:25.058Z,4.13
2023-01-30T10:16:00.788Z,2.10
2023-01-30T10:18:59.861Z,3.05
2023-01-30T10:21:59.297Z,2.75
2023-01-30T10:24:50.125Z,2.17
2023-01-30T10:27:19.219Z,1.67
2023-01-30T10:29:51.815Z,1.60
2023-01-30T10:32:31.804Z,1.65
2023-01-30T10:35:06.376Z,1.30
2023-01-30T10:37:44.464Z,1.33
2023-01-30T10:40:33.526Z,1.30
2023-01-30T10:43:07.848Z,1.27
2023-01-30T10:45:52.415Z,1.45
2023-01-30T10:48:46.673Z,1.63
2023-01-30T10:51:25.914Z,1.23
2023-01-30T10:53:59.886Z,1.73
2023-01-30T10:56:45.173Z,1.33
2023-01-30T10:59:32.244Z,1.50
2023-01-30T11:02:25.693Z,1.25
2023-01-30T11:04:59.352Z,1.02
2023-01-30T11:07:29.867Z,1.33
2023-01-30T11:09:57.956Z,1.30
2023-01-30T11:12:24.551Z,1.40
2023-01-30T11:14:53.327Z,1.30
2023-01-30T11:17:27.966Z,1.65
2023-01-30T11:19:56.664Z,1.40
2023-01-30T11:22:26.942Z,1.10
2023-01-30T11:25:06.229Z,1.23
2023-01-30T11:27:35.679Z,1.90
2023-01-30T11:30:20.104Z,1.70
2023-01-30T11:32:49.464Z,1.75
2023-01-30T11:35:15.822Z,1.67
2023-01-30T11:37:44.815Z,1.75
2023-01-30T11:40:17.646Z,1.75
2023-01-30T11:42:46.775Z,2.38
2023-01-30T11:45:17.809Z,1.80
2023-01-30T11:47:57.723Z,1.75
2023-01-30T11:50:36.541Z,2.63
2023-01-30T11:53:28.870Z,2.13
2023-01-30T11:56:05.522Z,2.40
2023-01-30T11:58:36.522Z,1.70
2023-01-30T12:01:04.047Z,2.13
2023-01-30T12:03:31.303Z,3.30
2023-01-30T12:05:58.883Z,1.77
2023-01-30T12:08:41.812Z,2.13
2023-01-30T12:11:45.150Z,2.83
2023-01-30T12:14:43.870Z,2.00
2023-01-30T12:17:21.545Z,2.30
2023-01-30T12:20:12.921Z,2.58
2023-01-30T12:22:49.703Z,2.00
2023-01-30T12:25:25.637Z,3.33
2023-01-30T12:28:03.236Z,2.97
2023-01-30T12:30:29.726Z,2.63
2023-01-30T12:35:56.580Z,3.03
2023-01-30T12:38:39.658Z,2.95
2023-01-30T12:41:48.013Z,2.78
2023-01-30T12:44:23.359Z,3.20
2023-01-30T12:47:31.804Z,3.33
2023-01-30T12:50:35.154Z,2.47
2023-01-30T12:53:18.539Z,2.92
2023-01-30T12:56:17.348Z,2.70
2023-01-30T12:59:05.463Z,3.47
2023-01-30T13:02:20.454Z,2.67
2023-01-30T13:05:11.892Z,2.28
2023-01-30T13:08:08.276Z,3.58
2023-01-30T13:11:07.843Z,4.47
2023-01-30T13:13:56.688Z,3.35
2023-01-30T13:16:27.496Z,3.03
2023-01-30T13:19:07.437Z,4.13
2023-01-30T13:21:41.393Z,2.60
2023-01-30T13:24:21.314Z,2.80
2023-01-30T13:26:49.805Z,3.28
2023-01-30T13:29:26.109Z,4.18
2023-01-30T13:31:57.190Z,4.55
2023-01-30T13:34:33.981Z,4.20
2023-01-30T13:37:04.193Z,4.68
2023-01-30T13:39:36.640Z,3.97
2023-01-30T13:42:21.028Z,5.15
2023-01-30T13:44:49.839Z,4.85
2023-01-30T13:47:40.923Z,4.47
2023-01-30T13:50:38.905Z,5.15
2023-01-30T13:53:13.547Z,5.15
2023-01-30T13:55:51.693Z,3.22
2023-01-30T13:58:43.755Z,4.90
2023-01-30T14:01:12.390Z,4.75
2023-01-30T14:03:40.772Z,2.53
2023-01-30T14:06:12.645Z,2.60
2023-01-30T14:08:45.233Z,2.95
2023-01-30T14:11:34.393Z,4.38
2023-01-30T14:14:19.789Z,2.83
2023-01-30T14:16:49.932Z,3.05
2023-01-30T14:19:34.088Z,3.17
2023-01-30T14:22:05.356Z,4.53
2023-01-30T14:24:31.841Z,2.50
2023-01-30T14:26:58.191Z,2.58
2023-01-30T14:29:42.580Z,2.35
2023-01-30T14:32:12.804Z,2.20
2023-01-30T14:34:59.204Z,2.75
2023-01-30T14:37:29.060Z,2.83
2023-01-30T14:39:57.753Z,6.38
2023-01-30T14:42:26.452Z,2.03
2023-01-30T14:44:59.121Z,2.65
2023-01-30T14:47:35.156Z,2.28
2023-01-30T14:50:20.784Z,2.63
2023-01-30T14:52:50.114Z,2.00
2023-01-30T14:55:21.247Z,1.70
2023-01-30T14:58:01.409Z,1.90
2023-01-30T15:00:32.352Z,1.60
2023-01-30T15:03:04.695Z,2.03
2023-01-30T15:05:39.968Z,2.47
2023-01-30T15:08:10.158Z,2.15
2023-01-30T15:11:03.101Z,1.73
2023-01-30T15:13:41.742Z,2.50
2023-01-30T15:16:45.755Z,2.42
2023-01-30T15:19:40.152Z,3.00
2023-01-30T15:22:46.675Z,3.15
2023-01-30T15:25:22.571Z,2.53
2023-01-30T15:28:19.741Z,2.20
2023-01-30T15:31:00.812Z,2.22
2023-01-30T15:33:31.306Z,3.35
2023-01-30T15:35:58.594Z,3.60
2023-01-30T15:38:25.294Z,2.03
2023-01-30T15:40:57.972Z,2.70
2023-01-30T15:43:59.949Z,3.10
2023-01-30T15:46:50.979Z,3.33
2023-01-30T15:49:47.351Z,2.88
2023-01-30T15:52:19.637Z,2.40
2023-01-30T15:54:51.815Z,2.95
2023-01-30T15:57:31.742Z,5.25
2023-01-30T15:59:59.124Z,4.30
2023-01-30T16:02:35.926Z,5.95
2023-01-30T16:05:26.606Z,3.78
2023-01-30T16:07:55.548Z,4.03
2023-01-30T16:10:30.370Z,7.55
2023-01-30T16:13:02.387Z,3.90
2023-01-30T16:15:38.947Z,8.00
2023-01-30T16:18:20.596Z,3.92
2023-01-30T16:21:17.080Z,4.55
2023-01-30T16:23:54.061Z,3.42
2023-01-30T16:26:21.899Z,2.45
2023-01-30T16:28:50.872Z,3.03
2023-01-30T16:31:18.521Z,3.28
2023-01-30T16:33:52.471Z,4.45
2023-01-30T16:36:21.644Z,3.30
2023-01-30T16:38:49.844Z,5.10
2023-01-30T16:41:35.689Z,4.38
2023-01-30T16:44:22.026Z,4.05
2023-01-30T16:46:55.676Z,7.35
2023-01-30T16:49:37.349Z,5.40
2023-01-30T16:52:23.044Z,5.20
2023-01-30T16:54:53.211Z,6.35
2023-01-30T16:57:38.044Z,4.88
2023-01-30T17:00:19.790Z,3.85
2023-01-30T17:02:58.112Z,3.13
2023-01-30T17:05:28.232Z,4.50
2023-01-30T17:07:56.206Z,3.40
2023-01-30T17:10:28.581Z,5.53
2023-01-30T17:12:56.825Z,3.33
2023-01-30T17:15:29.244Z,3.80
2023-01-30T17:17:55.661Z,4.80
2023-01-30T17:20:22.505Z,3.00
2023-01-30T17:22:52.392Z,2.70
2023-01-30T17:25:30.510Z,3.47
2023-01-30T17:27:58.146Z,3.72
2023-01-30T17:30:24.912Z,2.85
2023-01-30T17:32:51.348Z,2.88
2023-01-30T17:35:18.301Z,6.90
2023-01-30T17:37:46.762Z,3.92
2023-01-30T17:40:23.043Z,3.60
2023-01-30T17:42:49.483Z,3.00
2023-01-30T17:45:16.047Z,3.17
2023-01-30T17:47:42.490Z,3.08
2023-01-30T17:50:13.612Z,4.70
2023-01-30T17:52:41.733Z,2.85
2023-01-30T17:55:13.257Z,2.80
2023-01-30T17:57:48.621Z,2.63
2023-01-30T18:00:18.502Z,2.95
2023-01-30T18:02:45.664Z,3.63
2023-01-30T18:05:12.391Z,4.15
2023-01-30T18:07:40.290Z,5.03
2023-01-30T18:10:08.193Z,3.10
2023-01-30T18:12:34.638Z,4.18
2023-01-30T18:15:01.059Z,5.45
2023-01-30T18:17:28.463Z,3.70
2023-01-30T18:19:55.784Z,3.20
2023-01-30T18:22:22.598Z,3.53
2023-01-30T18:24:49.067Z,5.47
2023-01-30T18:27:15.497Z,4.38
2023-01-30T18:29:41.927Z,3.40
2023-01-30T18:32:08.353Z,4.05
2023-01-30T18:34:35.287Z,7.63
2023-01-30T18:37:01.842Z,3.08
2023-01-30T18:39:28.358Z,2.90
2023-01-30T18:41:54.832Z,3.38
2023-01-30T18:44:21.293Z,2.80
2023-01-30T18:46:50.004Z,3.08
2023-01-30T18:49:16.437Z,3.85
2023-01-30T18:51:42.856Z,3.45
2023-01-30T18:54:09.378Z,3.90
2023-01-30T18:56:36.702Z,6.82
2023-01-30T18:59:05.238Z,5.15
2023-01-30T19:01:35.497Z,9.90
2023-01-30T19:04:03.692Z,7.00
2023-01-30T19:06:30.334Z,2.95
2023-01-30T19:08:57.687Z,4.03
2023-01-30T19:11:42.769Z,3.88
2023-01-30T19:14:09.675Z,4.47
2023-01-30T19:16:37.679Z,4.57
2023-01-30T19:19:05.765Z,2.88
2023-01-30T19:21:32.303Z,6.40
2023-01-30T19:24:01.516Z,4.53
2023-01-30T19:26:28.537Z,5.47
2023-01-30T19:28:55.078Z,3.85
2023-01-30T19:31:22.438Z,4.95
2023-01-30T19:33:55.383Z,3.55
2023-01-30T19:36:23.490Z,4.03
2023-01-30T19:38:51.055Z,4.18
2023-01-30T19:41:24.325Z,3.35
2023-01-30T19:43:52.537Z,6.25
2023-01-30T19:46:19.189Z,4.30
2023-01-30T19:48:47.051Z,3.88
2023-01-30T19:51:20.770Z,2.83
2023-01-30T19:53:52.439Z,2.47
2023-01-30T19:56:21.691Z,1.90
2023-01-30T19:58:50.756Z,3.85
2023-01-30T20:01:19.481Z,6.60
2023-01-30T20:03:46.835Z,5.60
2023-01-30T20:06:24.440Z,2.80
2023-01-30T20:08:55.040Z,3.03
2023-01-30T20:11:24.057Z,2.55
2023-01-30T20:13:51.464Z,3.40
2023-01-30T20:16:21.244Z,2.88
2023-01-30T20:18:53.800Z,4.22
2023-01-30T20:21:21.565Z,2.90
2023-01-30T20:23:48.787Z,6.13
2023-01-30T20:26:21.220Z,2.97
2023-01-30T20:28:48.283Z,6.13
2023-01-30T20:31:18.399Z,2.90
2023-01-30T20:33:45.397Z,2.58
2023-01-30T20:36:14.984Z,5.82
2023-01-30T20:38:43.681Z,4.28
2023-01-30T20:41:15.562Z,2.53
2023-01-30T20:43:45.080Z,4.47
2023-01-30T20:46:29.307Z,3.20
2023-01-30T20:48:57.580Z,3.58
2023-01-30T20:51:27.105Z,2.97
2023-01-30T20:53:56.419Z,4.05
2023-01-30T20:56:24.553Z,4.30
2023-01-30T20:58:51.357Z,8.32
2023-01-30T21:01:21.350Z,3.25
2023-01-30T21:03:50.476Z,2.75
2023-01-30T21:06:41.136Z,6.85
2023-01-30T21:09:05.953Z,3.10
2023-01-30T21:11:32.476Z,3.15
2023-01-30T21:13:58.991Z,5.65
2023-01-30T21:16:28.229Z,4.30
2023-01-30T21:19:01.984Z,2.80
2023-01-30T21:21:37.111Z,3.95
2023-01-30T21:24:06.706Z,2.72
2023-01-30T21:26:35.966Z,3.10
2023-01-30T21:29:06.070Z,4.00
2023-01-30T21:31:34.347Z,2.80
2023-01-30T21:34:01.675Z,4.32
2023-01-30T21:36:28.281Z,4.10
2023-01-30T21:39:13.770Z,4.03
2023-01-30T21:42:01.045Z,2.88
2023-01-30T21:44:30.941Z,2.85
2023-01-30T21:46:58.192Z,3.42
2023-01-30T21:49:25.303Z,4.43
2023-01-30T21:51:52.453Z,3.28
2023-01-30T21:54:19.717Z,2.60
2023-01-30T21:56:46.705Z,2.85
2023-01-30T21:59:13.561Z,4.45
2023-01-30T22:01:40.849Z,3.08
2023-01-30T22:04:13.924Z,5.00
2023-01-30T22:06:41.167Z,2.83
2023-01-30T22:09:08.585Z,4.72
2023-01-30T22:11:36.472Z,5.65
2023-01-30T22:14:03.574Z,3.45
2023-01-30T22:16:30.370Z,8.40
2023-01-30T22:19:00.392Z,3.60
2023-01-30T22:21:31.555Z,5.10
2023-01-30T22:23:58.347Z,2.70
2023-01-30T22:26:26.156Z,3.20
2023-01-30T22:28:54.631Z,6.07
2023-01-30T22:31:21.330Z,3.80
2023-01-30T22:33:51.259Z,3.13
2023-01-30T22:36:17.899Z,2.70
2023-01-30T22:38:46.116Z,3.33
2023-01-30T22:41:18.329Z,4.72
2023-01-30T22:43:47.369Z,5.47
2023-01-30T22:46:15.225Z,3.35
2023-01-30T22:48:42.356Z,4.55
2023-01-30T22:51:11.883Z,3.08
2023-01-30T22:53:40.931Z,2.80
2023-01-30T22:56:10.631Z,5.30
2023-01-30T22:58:37.471Z,8.15
2023-01-30T23:01:17.890Z,2.92
2023-01-30T23:03:45.741Z,3.15
2023-01-30T23:06:15.269Z,3.00
2023-01-30T23:08:44.323Z,4.15
2023-01-30T23:11:21.035Z,5.70
2023-01-30T23:13:50.459Z,5.63
2023-01-30T23:16:19.486Z,5.68
2023-01-30T23:18:55.095Z,3.53
2023-01-30T23:21:31.771Z,4.07
2023-01-30T23:24:03.244Z,6.45
2023-01-30T23:26:33.069Z,2.75
2023-01-30T23:29:01.243Z,3.38
2023-01-30T23:31:28.991Z,7.38
2023-01-30T23:34:01.129Z,2.85
2023-01-30T23:36:28.362Z,4.13
2023-01-30T23:38:56.659Z,4.47
2023-01-30T23:41:26.386Z,6.22
2023-01-30T23:43:53.506Z,4.40
2023-01-30T23:46:21.874Z,3.78
2023-01-30T23:48:55.494Z,4.75
2023-01-30T23:51:24.205Z,2.83
2023-01-30T23:53:52.429Z,3.35
2023-01-30T23:56:20.929Z,5.30
2023-01-30T23:58:49.041Z,3.55
